Search for airport 
image banner adimage banner adimage banner ad
image banner ad

CA44 - Sequoia Ranch

Located in Springville, United States

ICAO - CA44, IATA -

Data provided by Airmate  

General information

Coordinates: N36°8'60" W118°48'8"
Elevation is 1153 feet MSL.
Magnetic variation is 15° East
View others Airports in California

Operational data

Special qualification required
Current time UTC:
Current local time:
Weather at : KPTV - Porterville Muni ( 27 km )
METAR: KPTV 211156Z AUTO 16005KT 10SM 21/05 A2983 RMK AO2 SLP096 T02110050 10283 20211 53006 $
View NOTAMs / SUP AIP / TFR affecting this airport [VIEW]
Communications frequencies: [VIEW]

Runways:

RWY identifierQFULength (ft)Width (ft)SurfaceLDA (ft)
N2800100OTHER
S2800100OTHER

Airport contact information

Address: Springville United States

Satellite view of CA44